createdAt,value
2018-05-23T00:02:11.335Z,2.70
2018-05-23T00:04:39.733Z,3.03
2018-05-23T00:07:07.802Z,3.20
2018-05-23T00:09:36.122Z,2.80
2018-05-23T00:12:04.296Z,2.70
2018-05-23T00:14:32.886Z,2.40
2018-05-23T00:17:00.668Z,3.00
2018-05-23T00:19:28.479Z,2.53
2018-05-23T00:21:57.204Z,3.23
2018-05-23T00:24:25.047Z,3.20
2018-05-23T00:26:52.923Z,2.73
2018-05-23T00:29:21.268Z,3.43
2018-05-23T00:31:49.991Z,3.87
2018-05-23T00:34:17.863Z,3.90
2018-05-23T00:36:46.290Z,3.83
2018-05-23T00:39:14.268Z,3.63
2018-05-23T00:41:42.087Z,3.20
2018-05-23T00:44:10.317Z,3.90
2018-05-23T00:46:38.081Z,3.70
2018-05-23T00:49:05.879Z,3.63
2018-05-23T00:51:33.973Z,3.67
2018-05-23T00:54:01.813Z,3.17
2018-05-23T00:56:29.782Z,3.57
2018-05-23T00:58:58.160Z,3.27
2018-05-23T01:01:26.340Z,3.60
2018-05-23T01:03:54.274Z,3.70
2018-05-23T01:06:22.577Z,3.50
2018-05-23T01:08:50.606Z,3.90
2018-05-23T01:11:18.720Z,3.90
2018-05-23T01:13:47.048Z,3.80
2018-05-23T01:16:15.374Z,3.57
2018-05-23T01:18:43.345Z,3.90
2018-05-23T01:21:11.743Z,3.87
2018-05-23T01:23:40.001Z,3.57
2018-05-23T01:26:07.848Z,3.73
2018-05-23T01:28:35.840Z,4.00
2018-05-23T01:31:04.008Z,3.83
2018-05-23T01:33:32.046Z,4.03
2018-05-23T01:36:00.254Z,4.30
2018-05-23T01:38:28.427Z,3.90
2018-05-23T01:40:56.297Z,3.87
2018-05-23T01:43:24.365Z,4.27
2018-05-23T01:45:52.738Z,4.00
2018-05-23T01:48:20.792Z,3.67
2018-05-23T01:50:49.290Z,4.10
2018-05-23T01:53:17.263Z,3.60
2018-05-23T01:55:45.183Z,3.93
2018-05-23T01:58:13.302Z,4.00
2018-05-23T02:00:41.375Z,3.97
2018-05-23T02:03:09.240Z,3.90
2018-05-23T02:05:37.310Z,4.17
2018-05-23T02:08:05.386Z,4.10
2018-05-23T02:10:33.143Z,4.30
2018-05-23T02:13:01.387Z,4.40
2018-05-23T02:15:29.729Z,4.20
2018-05-23T02:17:57.874Z,4.03
2018-05-23T02:20:25.960Z,4.90
2018-05-23T02:22:53.975Z,4.43
2018-05-23T02:25:21.981Z,4.20
2018-05-23T02:27:50.154Z,4.30
2018-05-23T02:30:18.244Z,4.40
2018-05-23T02:32:46.094Z,4.23
2018-05-23T02:35:14.129Z,5.03
2018-05-23T02:37:42.161Z,4.23
2018-05-23T02:40:09.887Z,8.50
2018-05-23T02:42:38.178Z,19.17
2018-05-23T02:45:06.319Z,33.63
2018-05-23T02:47:34.108Z,8.60
2018-05-23T02:50:02.287Z,11.27
2018-05-23T02:52:30.489Z,14.33
2018-05-23T02:54:58.327Z,6.40
2018-05-23T02:57:26.495Z,5.43
2018-05-23T02:59:54.800Z,4.20
2018-05-23T03:02:22.640Z,4.43
2018-05-23T03:04:50.938Z,4.77
2018-05-23T03:07:18.983Z,4.57
2018-05-23T03:09:46.755Z,4.23
2018-05-23T03:12:14.999Z,4.87
2018-05-23T03:14:43.367Z,4.37
2018-05-23T03:17:11.239Z,4.13
2018-05-23T03:19:39.558Z,4.27
2018-05-23T03:22:07.642Z,3.60
2018-05-23T03:24:35.585Z,3.90
2018-05-23T03:27:03.971Z,3.80
2018-05-23T03:29:31.917Z,4.10
2018-05-23T03:31:59.719Z,4.03
2018-05-23T03:34:28.593Z,4.03
2018-05-23T03:36:56.557Z,4.00
2018-05-23T03:39:24.422Z,3.87
2018-05-23T03:41:52.728Z,4.30
2018-05-23T03:44:20.874Z,4.27
2018-05-23T03:46:48.753Z,4.47
2018-05-23T03:49:16.913Z,4.07
2018-05-23T03:51:45.169Z,4.97
2018-05-23T03:54:13.056Z,5.23
2018-05-23T03:56:41.233Z,4.93
2018-05-23T03:59:09.404Z,5.00
2018-05-23T04:01:49.454Z,4.50
2018-05-23T04:04:29.100Z,4.67
2018-05-23T04:10:01.060Z,5.10
2018-05-23T04:12:29.732Z,4.57
2018-05-23T04:14:58.042Z,4.27
2018-05-23T04:17:25.922Z,4.53
2018-05-23T04:19:54.298Z,4.30
2018-05-23T04:22:22.765Z,4.60
2018-05-23T04:24:50.759Z,4.80
2018-05-23T04:27:18.911Z,4.90
2018-05-23T04:29:46.943Z,4.80
2018-05-23T04:32:14.866Z,5.47
2018-05-23T04:34:42.918Z,4.60
2018-05-23T04:37:11.406Z,4.27
2018-05-23T04:39:39.278Z,4.13
2018-05-23T04:42:07.336Z,4.57
2018-05-23T04:44:35.639Z,4.70
2018-05-23T04:47:03.989Z,4.90
2018-05-23T04:49:32.680Z,5.30
2018-05-23T04:52:00.444Z,4.90
2018-05-23T04:54:28.460Z,5.03
2018-05-23T04:56:56.606Z,5.33
2018-05-23T04:59:24.456Z,5.23
2018-05-23T05:01:52.829Z,5.73
2018-05-23T05:04:21.111Z,5.90
2018-05-23T05:06:48.973Z,5.23
2018-05-23T05:09:17.099Z,5.87
2018-05-23T05:11:46.417Z,5.50
2018-05-23T05:14:14.410Z,5.73
2018-05-23T05:16:43.124Z,5.90
2018-05-23T05:19:11.372Z,5.77
2018-05-23T05:21:39.345Z,5.47
2018-05-23T05:24:07.517Z,6.30
2018-05-23T05:26:35.802Z,6.30
2018-05-23T05:29:03.767Z,6.47
2018-05-23T05:31:32.104Z,6.33
2018-05-23T05:34:00.522Z,5.70
2018-05-23T05:36:28.895Z,5.50
2018-05-23T05:38:57.230Z,7.23
2018-05-23T05:41:25.339Z,6.77
2018-05-23T05:43:53.178Z,5.90
2018-05-23T05:46:21.346Z,5.67
2018-05-23T05:48:49.890Z,5.80
2018-05-23T05:51:17.704Z,5.03
2018-05-23T05:53:45.617Z,5.33
2018-05-23T05:56:14.214Z,5.30
2018-05-23T05:58:42.413Z,4.80
2018-05-23T06:01:11.348Z,4.63
2018-05-23T06:03:39.850Z,4.97
2018-05-23T06:06:07.744Z,4.50
2018-05-23T06:08:35.588Z,5.07
2018-05-23T06:11:04.874Z,4.43
2018-05-23T06:13:32.697Z,4.40
2018-05-23T06:16:00.711Z,4.43
2018-05-23T06:18:29.212Z,5.60
2018-05-23T06:20:57.256Z,4.17
2018-05-23T06:23:25.116Z,5.10
2018-05-23T06:25:53.596Z,4.60
2018-05-23T06:28:21.715Z,4.90
2018-05-23T06:30:49.635Z,5.13
2018-05-23T06:33:17.908Z,5.30
2018-05-23T06:35:46.003Z,4.90
2018-05-23T06:38:14.263Z,5.60
2018-05-23T06:40:42.434Z,5.10
2018-05-23T06:43:10.298Z,4.90
2018-05-23T06:45:38.639Z,5.67
2018-05-23T06:48:06.851Z,4.50
2018-05-23T06:50:34.729Z,4.83
2018-05-23T06:53:02.792Z,4.90
2018-05-23T06:55:30.963Z,5.20
2018-05-23T06:57:58.881Z,5.07
2018-05-23T07:00:27.749Z,4.43
2018-05-23T07:02:55.795Z,4.50
2018-05-23T07:05:23.582Z,3.90
2018-05-23T07:07:51.628Z,2.60
2018-05-23T07:10:19.696Z,2.80
2018-05-23T07:12:47.568Z,2.63
2018-05-23T07:15:15.843Z,3.73
2018-05-23T07:17:44.114Z,2.60
2018-05-23T07:20:12.398Z,2.30
2018-05-23T07:22:40.674Z,2.23
2018-05-23T07:25:08.975Z,1.83
2018-05-23T07:27:37.016Z,1.93
2018-05-23T07:30:04.876Z,1.50
2018-05-23T07:32:33.106Z,1.70
2018-05-23T07:35:01.464Z,1.70
2018-05-23T07:37:29.400Z,1.73
2018-05-23T07:39:57.746Z,2.33
2018-05-23T07:42:26.057Z,1.73
2018-05-23T07:44:53.922Z,1.70
2018-05-23T07:47:22.402Z,1.83
2018-05-23T07:49:50.474Z,1.77
2018-05-23T07:52:18.505Z,2.20
2018-05-23T07:54:46.991Z,3.60
2018-05-23T07:57:17.251Z,2.27
2018-05-23T07:59:49.314Z,2.10
2018-05-23T08:02:18.189Z,2.00
2018-05-23T08:04:45.896Z,1.90
2018-05-23T08:07:13.780Z,1.83
2018-05-23T08:09:42.313Z,1.73
2018-05-23T08:12:14.481Z,2.50
2018-05-23T08:14:42.328Z,1.87
2018-05-23T08:17:10.857Z,1.90
2018-05-23T08:19:39.028Z,2.10
2018-05-23T08:22:06.899Z,2.50
2018-05-23T08:24:35.271Z,1.87
2018-05-23T08:27:03.196Z,1.90
2018-05-23T08:29:31.521Z,3.37
2018-05-23T08:32:00.280Z,1.80
2018-05-23T08:34:28.148Z,1.70
2018-05-23T08:36:56.213Z,1.80
2018-05-23T08:39:24.423Z,2.00
2018-05-23T08:41:52.565Z,2.10
2018-05-23T08:44:20.942Z,2.03
2018-05-23T08:46:49.628Z,1.50
2018-05-23T08:49:17.428Z,1.70
2018-05-23T08:51:45.739Z,1.63
2018-05-23T08:54:14.170Z,2.17
2018-05-23T08:56:42.097Z,1.90
2018-05-23T08:59:10.330Z,1.70
2018-05-23T09:01:38.670Z,1.50
2018-05-23T09:04:06.716Z,2.20
2018-05-23T09:06:34.725Z,1.77
2018-05-23T09:09:03.027Z,2.00
2018-05-23T09:11:31.054Z,2.73
2018-05-23T09:13:58.953Z,1.90
2018-05-23T09:16:27.126Z,1.87
2018-05-23T09:18:55.480Z,1.80
2018-05-23T09:21:24.043Z,2.37
2018-05-23T09:23:53.157Z,2.00
2018-05-23T09:26:21.174Z,2.10
2018-05-23T09:28:49.362Z,1.83
2018-05-23T09:31:18.214Z,1.90
2018-05-23T09:33:46.029Z,2.00
2018-05-23T09:36:13.820Z,2.20
2018-05-23T09:38:42.807Z,1.90
2018-05-23T09:41:10.739Z,2.13
2018-05-23T09:43:38.549Z,1.67
2018-05-23T09:46:07.135Z,1.67
2018-05-23T09:48:35.202Z,1.70
2018-05-23T09:51:02.989Z,1.73
2018-05-23T09:53:32.661Z,1.80
2018-05-23T09:56:00.958Z,1.70
2018-05-23T09:58:29.016Z,1.90
2018-05-23T10:00:58.625Z,1.73
2018-05-23T10:03:27.003Z,1.73
2018-05-23T10:05:54.870Z,1.80
2018-05-23T10:08:23.238Z,1.70
2018-05-23T10:10:51.346Z,1.60
2018-05-23T10:13:19.333Z,2.13
2018-05-23T10:15:47.772Z,1.63
2018-05-23T10:18:15.801Z,2.17
2018-05-23T10:20:43.605Z,2.20
2018-05-23T10:23:12.081Z,2.40
2018-05-23T10:25:40.155Z,1.80
2018-05-23T10:28:08.025Z,1.80
2018-05-23T10:30:36.300Z,2.00
2018-05-23T10:33:05.122Z,1.90
2018-05-23T10:35:33.124Z,2.20
2018-05-23T10:38:01.876Z,2.43
2018-05-23T10:40:30.227Z,2.00
2018-05-23T10:42:58.161Z,1.93
2018-05-23T10:45:27.181Z,1.50
2018-05-23T10:47:55.357Z,1.90
2018-05-23T10:50:24.710Z,1.80
2018-05-23T10:52:53.648Z,2.20
2018-05-23T10:55:21.767Z,1.60
2018-05-23T10:57:49.719Z,1.80
2018-05-23T11:00:18.822Z,1.80
2018-05-23T11:02:47.111Z,1.73
2018-05-23T11:05:15.231Z,1.93
2018-05-23T11:07:43.806Z,1.87
2018-05-23T11:10:11.650Z,2.00
2018-05-23T11:12:39.588Z,1.90
2018-05-23T11:15:08.114Z,1.70
2018-05-23T11:17:36.307Z,1.53
2018-05-23T11:20:04.660Z,2.23
2018-05-23T11:22:33.471Z,1.40
2018-05-23T11:25:01.576Z,1.57
2018-05-23T11:27:29.487Z,1.60
2018-05-23T11:29:57.919Z,2.10
2018-05-23T11:32:25.788Z,1.67
2018-05-23T11:34:53.727Z,1.80
2018-05-23T11:37:22.445Z,1.73
2018-05-23T11:39:50.527Z,1.57
2018-05-23T11:42:18.281Z,1.50
2018-05-23T11:44:46.622Z,1.70
2018-05-23T11:47:14.696Z,1.50
2018-05-23T11:49:42.717Z,2.00
2018-05-23T11:52:11.532Z,2.07
2018-05-23T11:54:39.932Z,2.27
2018-05-23T11:57:08.412Z,1.60
2018-05-23T11:59:37.064Z,1.67
2018-05-23T12:02:05.586Z,1.60
2018-05-23T12:04:33.652Z,2.00
2018-05-23T12:07:02.131Z,1.93
2018-05-23T12:09:29.995Z,1.87
2018-05-23T12:11:58.272Z,1.63
2018-05-23T12:14:26.548Z,1.93
2018-05-23T12:16:54.518Z,1.73
2018-05-23T12:19:22.590Z,1.57
2018-05-23T12:21:50.738Z,1.60
2018-05-23T12:24:18.639Z,1.70
2018-05-23T12:26:46.815Z,1.80
2018-05-23T12:29:15.309Z,1.70
2018-05-23T12:31:43.613Z,1.90
2018-05-23T12:34:11.541Z,1.87
2018-05-23T12:36:40.236Z,1.70
2018-05-23T12:39:08.042Z,1.90
2018-05-23T12:41:36.131Z,1.73
2018-05-23T12:44:04.993Z,1.67
2018-05-23T12:46:32.907Z,1.73
2018-05-23T12:49:00.776Z,1.70
2018-05-23T12:51:29.563Z,1.90
2018-05-23T12:53:57.430Z,2.27
2018-05-23T12:56:25.404Z,1.80
2018-05-23T12:58:54.493Z,2.20
2018-05-23T13:01:22.362Z,1.80
2018-05-23T13:03:50.227Z,1.90
2018-05-23T13:06:19.129Z,1.70
2018-05-23T13:08:47.089Z,2.00
2018-05-23T13:11:15.576Z,1.73
2018-05-23T13:13:44.268Z,1.80
2018-05-23T13:16:12.197Z,1.90
2018-05-23T13:18:40.086Z,1.90
2018-05-23T13:21:08.683Z,1.73
2018-05-23T13:23:36.463Z,2.13
2018-05-23T13:26:04.338Z,1.97
2018-05-23T13:28:32.848Z,2.10
2018-05-23T13:31:00.692Z,1.93
2018-05-23T13:33:28.616Z,1.83
2018-05-23T13:35:57.057Z,1.97
2018-05-23T13:38:24.859Z,1.70
2018-05-23T13:40:52.710Z,2.57
2018-05-23T13:43:21.106Z,1.80
2018-05-23T13:45:49.076Z,2.20
2018-05-23T13:48:17.351Z,2.00
2018-05-23T13:50:45.961Z,2.30
2018-05-23T13:53:14.294Z,2.20
2018-05-23T13:55:42.172Z,1.73
2018-05-23T13:58:10.585Z,2.10
2018-05-23T14:00:38.518Z,2.37
2018-05-23T14:03:06.640Z,1.97
2018-05-23T14:05:35.593Z,1.90
2018-05-23T14:08:03.461Z,1.50
2018-05-23T14:10:31.731Z,2.50
2018-05-23T14:13:00.000Z,1.90
2018-05-23T14:15:27.978Z,1.77
2018-05-23T14:17:56.254Z,1.57
2018-05-23T14:20:24.508Z,1.50
2018-05-23T14:22:52.399Z,1.90
2018-05-23T14:25:20.669Z,1.60
2018-05-23T14:27:48.847Z,1.80
2018-05-23T14:30:16.627Z,2.20
2018-05-23T14:32:44.788Z,2.40
2018-05-23T14:35:13.192Z,2.43
2018-05-23T14:37:41.032Z,2.30
2018-05-23T14:40:09.178Z,2.00
2018-05-23T14:42:37.689Z,2.27
2018-05-23T14:45:05.583Z,2.40
2018-05-23T14:47:33.922Z,2.03
2018-05-23T14:50:02.232Z,2.03
2018-05-23T14:52:30.116Z,2.30
2018-05-23T14:54:58.172Z,2.10
2018-05-23T14:57:26.421Z,2.13
2018-05-23T14:59:54.767Z,1.90
2018-05-23T15:02:23.491Z,1.80
2018-05-23T15:04:51.863Z,1.80
2018-05-23T15:07:20.234Z,1.90
2018-05-23T15:09:48.486Z,1.90
2018-05-23T15:12:16.766Z,1.83
2018-05-23T15:14:44.862Z,1.60
2018-05-23T15:17:12.933Z,1.80
2018-05-23T15:19:41.438Z,1.87
2018-05-23T15:22:09.847Z,1.90
2018-05-23T15:24:37.820Z,2.10
2018-05-23T15:27:06.117Z,2.20
2018-05-23T15:29:34.825Z,1.97
2018-05-23T15:32:03.171Z,2.00
2018-05-23T15:34:31.581Z,1.97
2018-05-23T15:36:59.448Z,2.03
2018-05-23T15:39:27.858Z,1.90
2018-05-23T15:41:56.309Z,1.90
2018-05-23T15:44:24.181Z,2.00
2018-05-23T15:46:52.355Z,2.10
2018-05-23T15:49:20.692Z,2.00
2018-05-23T15:51:48.723Z,1.73
2018-05-23T15:54:16.683Z,1.60
2018-05-23T15:56:45.043Z,1.53
2018-05-23T15:59:13.268Z,1.70
2018-05-23T16:01:41.182Z,1.77
2018-05-23T16:04:09.769Z,2.40
2018-05-23T16:06:37.939Z,4.23
2018-05-23T16:09:06.080Z,2.20
2018-05-23T16:11:34.505Z,1.90
2018-05-23T16:14:02.302Z,2.47
2018-05-23T16:16:30.629Z,1.60
2018-05-23T16:18:59.118Z,1.60
2018-05-23T16:21:27.006Z,1.83
2018-05-23T16:23:54.890Z,1.60
2018-05-23T16:26:23.534Z,1.73
2018-05-23T16:28:51.301Z,2.07
2018-05-23T16:31:19.370Z,2.30
2018-05-23T16:33:47.508Z,1.70
2018-05-23T16:36:15.388Z,1.90
2018-05-23T16:38:43.589Z,2.00
2018-05-23T16:41:11.969Z,1.63
2018-05-23T16:43:39.759Z,1.80
2018-05-23T16:46:07.718Z,1.67
2018-05-23T16:48:36.301Z,1.53
2018-05-23T16:51:04.147Z,2.73
2018-05-23T16:53:32.292Z,1.90
2018-05-23T16:56:00.599Z,1.63
2018-05-23T16:58:28.545Z,1.87
2018-05-23T17:00:56.742Z,1.60
2018-05-23T17:03:24.852Z,2.67
2018-05-23T17:05:52.904Z,3.30
2018-05-23T17:08:20.895Z,2.30
2018-05-23T17:10:49.123Z,2.60
2018-05-23T17:13:17.061Z,1.60
2018-05-23T17:15:45.370Z,2.50
2018-05-23T17:18:13.748Z,1.93
2018-05-23T17:20:41.584Z,1.90
2018-05-23T17:23:09.834Z,2.27
2018-05-23T17:25:38.266Z,4.90
2018-05-23T17:28:06.253Z,2.03
2018-05-23T17:30:34.410Z,2.13
2018-05-23T17:33:03.049Z,1.80
2018-05-23T17:35:31.188Z,2.00
2018-05-23T17:37:59.362Z,2.27
2018-05-23T17:40:27.830Z,2.10
2018-05-23T17:42:56.351Z,1.70
2018-05-23T17:45:24.648Z,2.13
2018-05-23T17:47:53.059Z,2.17
2018-05-23T17:50:21.666Z,1.90
2018-05-23T17:52:49.921Z,1.93
2018-05-23T17:55:18.370Z,2.00
2018-05-23T17:57:46.298Z,1.53
2018-05-23T18:00:14.366Z,2.00
2018-05-23T18:02:42.634Z,2.20
2018-05-23T18:05:10.533Z,3.10
2018-05-23T18:07:38.666Z,2.23
2018-05-23T18:10:06.839Z,1.90
2018-05-23T18:12:35.312Z,2.17
2018-05-23T18:15:03.655Z,1.87
2018-05-23T18:17:31.962Z,2.43
2018-05-23T18:19:59.832Z,2.13
2018-05-23T18:22:28.137Z,1.73
2018-05-23T18:24:56.670Z,2.20
2018-05-23T18:27:24.654Z,1.97
2018-05-23T18:29:52.788Z,2.00
2018-05-23T18:32:21.105Z,2.00
2018-05-23T18:34:49.488Z,2.40
2018-05-23T18:37:17.879Z,2.17
2018-05-23T18:39:46.069Z,2.30
2018-05-23T18:42:14.053Z,2.40
2018-05-23T18:44:42.377Z,2.40
2018-05-23T18:47:10.760Z,2.37
2018-05-23T18:49:38.906Z,1.80
2018-05-23T18:52:07.620Z,2.03
2018-05-23T18:54:36.160Z,1.90
2018-05-23T18:57:04.443Z,2.23
2018-05-23T18:59:32.723Z,2.40
2018-05-23T19:02:01.321Z,2.30
2018-05-23T19:04:29.179Z,2.00
2018-05-23T19:06:57.688Z,2.40
2018-05-23T19:09:26.064Z,2.53
2018-05-23T19:11:54.452Z,3.10
2018-05-23T19:14:22.925Z,2.80
2018-05-23T19:16:51.768Z,2.30
2018-05-23T19:19:19.679Z,2.23
2018-05-23T19:21:47.950Z,2.50
2018-05-23T19:24:16.542Z,2.20
2018-05-23T19:26:44.707Z,2.57
2018-05-23T19:29:12.798Z,2.37
2018-05-23T19:31:41.267Z,2.40
2018-05-23T19:34:09.416Z,1.80
2018-05-23T19:36:37.732Z,2.47
2018-05-23T19:39:06.491Z,2.70
2018-05-23T19:41:34.434Z,2.50
2018-05-23T19:44:02.906Z,2.37
2018-05-23T19:46:32.658Z,2.50
2018-05-23T19:49:00.831Z,2.20
2018-05-23T19:51:29.495Z,2.70
2018-05-23T19:53:58.008Z,2.50
2018-05-23T19:56:25.963Z,2.93
2018-05-23T19:58:53.955Z,2.20
2018-05-23T20:01:22.852Z,1.93
2018-05-23T20:03:50.903Z,2.13
2018-05-23T20:06:19.162Z,2.13
2018-05-23T20:08:47.600Z,1.87
2018-05-23T20:11:15.812Z,2.10
2018-05-23T20:13:44.059Z,2.27
2018-05-23T20:16:12.483Z,2.60
2018-05-23T20:18:40.540Z,1.93
2018-05-23T20:21:08.623Z,2.37
2018-05-23T20:23:36.913Z,2.27
2018-05-23T20:26:04.828Z,2.50
2018-05-23T20:28:32.949Z,2.80
2018-05-23T20:31:01.329Z,2.73
2018-05-23T20:33:29.392Z,2.40
2018-05-23T20:35:57.669Z,3.57
2018-05-23T20:38:26.177Z,3.23
2018-05-23T20:40:54.227Z,2.60
2018-05-23T20:43:22.664Z,2.97
2018-05-23T20:45:51.083Z,2.40
2018-05-23T20:48:19.353Z,2.50
2018-05-23T20:50:47.731Z,2.23
2018-05-23T20:53:16.471Z,2.53
2018-05-23T20:55:44.627Z,2.80
2018-05-23T20:58:12.930Z,2.23
2018-05-23T21:00:41.319Z,2.03
2018-05-23T21:03:09.319Z,2.70
2018-05-23T21:05:39.608Z,2.53
2018-05-23T21:08:08.223Z,2.80
2018-05-23T21:10:36.186Z,2.63
2018-05-23T21:13:04.285Z,2.50
2018-05-23T21:15:32.738Z,2.77
2018-05-23T21:18:00.609Z,2.30
2018-05-23T21:20:28.676Z,2.00
2018-05-23T21:22:56.959Z,2.10
2018-05-23T21:25:25.234Z,3.23
2018-05-23T21:27:53.532Z,2.13
2018-05-23T21:30:21.902Z,2.10
2018-05-23T21:32:50.852Z,2.00
2018-05-23T21:35:18.637Z,2.40
2018-05-23T21:37:46.879Z,2.30
2018-05-23T21:40:14.996Z,2.20
2018-05-23T21:42:42.851Z,2.10
2018-05-23T21:45:11.205Z,2.50
2018-05-23T21:47:39.137Z,2.20
2018-05-23T21:50:07.048Z,2.20
2018-05-23T21:52:35.443Z,2.37
2018-05-23T21:55:03.530Z,2.00
2018-05-23T21:57:31.380Z,2.00
2018-05-23T21:59:59.742Z,2.00
2018-05-23T22:02:27.731Z,2.47
2018-05-23T22:04:55.457Z,2.13
2018-05-23T22:07:23.872Z,2.00
2018-05-23T22:09:52.079Z,1.97
2018-05-23T22:12:19.912Z,2.20
2018-05-23T22:14:48.510Z,2.50
2018-05-23T22:17:16.670Z,2.40
2018-05-23T22:19:44.512Z,3.03
2018-05-23T22:22:12.820Z,2.93
2018-05-23T22:24:40.940Z,3.20
2018-05-23T22:27:08.793Z,2.97
2018-05-23T22:29:36.944Z,2.80
2018-05-23T22:32:04.973Z,2.70
2018-05-23T22:34:32.874Z,3.20
2018-05-23T22:37:00.979Z,2.90
2018-05-23T22:39:29.228Z,2.70
2018-05-23T22:41:57.179Z,3.07
2018-05-23T22:44:25.844Z,3.13
2018-05-23T22:46:53.833Z,3.03
2018-05-23T22:49:21.711Z,3.53
2018-05-23T22:51:50.181Z,3.30
2018-05-23T22:54:18.291Z,3.40
2018-05-23T22:56:46.033Z,3.90
2018-05-23T22:59:14.394Z,3.70
2018-05-23T23:01:42.665Z,4.10
2018-05-23T23:04:10.644Z,3.90
2018-05-23T23:06:39.118Z,3.50
2018-05-23T23:09:07.185Z,3.97
2018-05-23T23:11:34.953Z,3.60
2018-05-23T23:14:03.337Z,3.40
2018-05-23T23:16:31.248Z,3.87
2018-05-23T23:18:59.235Z,3.50
2018-05-23T23:21:27.774Z,3.80
2018-05-23T23:23:56.125Z,3.20
2018-05-23T23:26:23.986Z,4.10
2018-05-23T23:28:52.068Z,3.53
2018-05-23T23:31:19.945Z,4.37
2018-05-23T23:33:47.783Z,4.50
2018-05-23T23:36:16.174Z,4.70
2018-05-23T23:38:44.348Z,5.17
2018-05-23T23:41:12.214Z,4.90
2018-05-23T23:43:40.415Z,5.80
2018-05-23T23:46:08.803Z,5.50
2018-05-23T23:48:36.635Z,6.27
2018-05-23T23:51:04.760Z,5.83
2018-05-23T23:53:32.782Z,5.13
2018-05-23T23:56:00.648Z,4.43
2018-05-23T23:58:28.915Z,4.33
